sensor_id;sensor_type;location;lat;lon;timestamp;temperature;humidity
12682;DHT22;6405;59.208;18.216;2022-08-20T00:01:06;19.40;99.90
12682;DHT22;6405;59.208;18.216;2022-08-20T00:03:39;19.40;99.90
12682;DHT22;6405;59.208;18.216;2022-08-20T00:06:19;19.40;99.90
12682;DHT22;6405;59.208;18.216;2022-08-20T00:08:45;19.40;99.90
12682;DHT22;6405;59.208;18.216;2022-08-20T00:11:14;19.40;99.90
12682;DHT22;6405;59.208;18.216;2022-08-20T00:13:46;19.40;99.90
12682;DHT22;6405;59.208;18.216;2022-08-20T00:16:15;19.40;99.90
12682;DHT22;6405;59.208;18.216;2022-08-20T00:18:44;19.40;99.90
12682;DHT22;6405;59.208;18.216;2022-08-20T00:21:14;19.40;99.90
12682;DHT22;6405;59.208;18.216;2022-08-20T00:23:44;19.40;99.90
12682;DHT22;6405;59.208;18.216;2022-08-20T00:26:14;19.40;99.90
12682;DHT22;6405;59.208;18.216;2022-08-20T00:28:41;19.40;99.90
12682;DHT22;6405;59.208;18.216;2022-08-20T00:31:11;19.40;99.90
12682;DHT22;6405;59.208;18.216;2022-08-20T00:33:38;19.30;99.90
12682;DHT22;6405;59.208;18.216;2022-08-20T00:36:06;19.30;99.90
12682;DHT22;6405;59.208;18.216;2022-08-20T00:38:35;19.30;99.90
12682;DHT22;6405;59.208;18.216;2022-08-20T00:41:04;19.30;99.90
12682;DHT22;6405;59.208;18.216;2022-08-20T00:43:43;19.40;99.90
12682;DHT22;6405;59.208;18.216;2022-08-20T00:46:14;19.30;99.90
12682;DHT22;6405;59.208;18.216;2022-08-20T00:48:45;19.40;99.90
12682;DHT22;6405;59.208;18.216;2022-08-20T00:51:40;19.40;99.90
12682;DHT22;6405;59.208;18.216;2022-08-20T00:54:14;19.40;99.90
12682;DHT22;6405;59.208;18.216;2022-08-20T00:56:42;19.50;99.90
12682;DHT22;6405;59.208;18.216;2022-08-20T00:59:15;19.50;99.90
12682;DHT22;6405;59.208;18.216;2022-08-20T01:01:44;19.50;99.90
12682;DHT22;6405;59.208;18.216;2022-08-20T01:04:11;19.50;99.90
12682;DHT22;6405;59.208;18.216;2022-08-20T01:06:38;19.50;99.90
12682;DHT22;6405;59.208;18.216;2022-08-20T01:09:06;19.60;99.90
12682;DHT22;6405;59.208;18.216;2022-08-20T01:11:34;19.70;99.90
12682;DHT22;6405;59.208;18.216;2022-08-20T01:14:07;19.80;99.90
12682;DHT22;6405;59.208;18.216;2022-08-20T01:17:06;19.80;99.90
12682;DHT22;6405;59.208;18.216;2022-08-20T01:19:58;19.90;99.90
12682;DHT22;6405;59.208;18.216;2022-08-20T01:25:52;20.10;99.90
12682;DHT22;6405;59.208;18.216;2022-08-20T01:28:51;20.20;99.90
12682;DHT22;6405;59.208;18.216;2022-08-20T01:31:27;20.20;99.90
12682;DHT22;6405;59.208;18.216;2022-08-20T01:33:56;20.30;99.90
12682;DHT22;6405;59.208;18.216;2022-08-20T01:36:35;20.40;99.90
12682;DHT22;6405;59.208;18.216;2022-08-20T01:39:06;20.40;99.90
12682;DHT22;6405;59.208;18.216;2022-08-20T01:41:35;20.50;99.90
12682;DHT22;6405;59.208;18.216;2022-08-20T01:44:06;20.60;99.90
12682;DHT22;6405;59.208;18.216;2022-08-20T01:46:36;20.70;99.90
12682;DHT22;6405;59.208;18.216;2022-08-20T01:49:16;20.70;99.90
12682;DHT22;6405;59.208;18.216;2022-08-20T01:51:44;20.70;99.90
12682;DHT22;6405;59.208;18.216;2022-08-20T01:54:11;20.70;99.90
12682;DHT22;6405;59.208;18.216;2022-08-20T01:56:52;20.80;99.90
12682;DHT22;6405;59.208;18.216;2022-08-20T01:59:20;20.90;99.90
12682;DHT22;6405;59.208;18.216;2022-08-20T02:01:47;21.00;99.90
12682;DHT22;6405;59.208;18.216;2022-08-20T02:04:17;21.00;99.90
12682;DHT22;6405;59.208;18.216;2022-08-20T02:06:50;21.00;99.90
12682;DHT22;6405;59.208;18.216;2022-08-20T02:09:17;20.90;99.90
12682;DHT22;6405;59.208;18.216;2022-08-20T02:11:45;21.00;99.90
12682;DHT22;6405;59.208;18.216;2022-08-20T02:14:14;21.10;99.90
12682;DHT22;6405;59.208;18.216;2022-08-20T02:16:44;21.20;99.90
12682;DHT22;6405;59.208;18.216;2022-08-20T02:21:55;21.20;99.90
12682;DHT22;6405;59.208;18.216;2022-08-20T02:24:22;21.20;99.90
12682;DHT22;6405;59.208;18.216;2022-08-20T02:26:49;21.20;99.90
12682;DHT22;6405;59.208;18.216;2022-08-20T02:29:15;21.20;99.90
12682;DHT22;6405;59.208;18.216;2022-08-20T02:31:44;21.30;99.90
12682;DHT22;6405;59.208;18.216;2022-08-20T02:34:12;21.20;99.90
12682;DHT22;6405;59.208;18.216;2022-08-20T02:36:41;21.30;99.90
12682;DHT22;6405;59.208;18.216;2022-08-20T02:39:11;21.20;99.90
12682;DHT22;6405;59.208;18.216;2022-08-20T02:41:38;21.30;99.90
12682;DHT22;6405;59.208;18.216;2022-08-20T02:44:07;21.30;99.90
12682;DHT22;6405;59.208;18.216;2022-08-20T02:46:34;21.20;99.90
12682;DHT22;6405;59.208;18.216;2022-08-20T02:49:02;21.20;99.90
12682;DHT22;6405;59.208;18.216;2022-08-20T02:51:28;21.20;99.90
12682;DHT22;6405;59.208;18.216;2022-08-20T02:53:56;21.30;99.90
12682;DHT22;6405;59.208;18.216;2022-08-20T02:56:24;21.30;99.90
12682;DHT22;6405;59.208;18.216;2022-08-20T02:58:50;21.30;99.90
12682;DHT22;6405;59.208;18.216;2022-08-20T03:01:17;21.30;99.90
12682;DHT22;6405;59.208;18.216;2022-08-20T03:03:45;21.30;99.90
12682;DHT22;6405;59.208;18.216;2022-08-20T03:06:13;21.40;99.90
12682;DHT22;6405;59.208;18.216;2022-08-20T03:08:41;21.40;99.90
12682;DHT22;6405;59.208;18.216;2022-08-20T03:11:08;21.40;99.90
12682;DHT22;6405;59.208;18.216;2022-08-20T03:13:35;21.40;99.90
12682;DHT22;6405;59.208;18.216;2022-08-20T03:16:03;21.50;99.90
12682;DHT22;6405;59.208;18.216;2022-08-20T03:18:37;21.50;99.90
12682;DHT22;6405;59.208;18.216;2022-08-20T03:21:06;21.60;99.90
12682;DHT22;6405;59.208;18.216;2022-08-20T03:23:34;21.60;99.90
12682;DHT22;6405;59.208;18.216;2022-08-20T03:26:09;21.50;99.90
12682;DHT22;6405;59.208;18.216;2022-08-20T03:28:38;21.50;99.90
12682;DHT22;6405;59.208;18.216;2022-08-20T03:31:05;21.50;99.90
12682;DHT22;6405;59.208;18.216;2022-08-20T03:33:32;21.50;99.90
12682;DHT22;6405;59.208;18.216;2022-08-20T03:35:57;21.50;99.90
12682;DHT22;6405;59.208;18.216;2022-08-20T03:38:24;21.40;99.90
12682;DHT22;6405;59.208;18.216;2022-08-20T03:40:51;21.40;99.90
12682;DHT22;6405;59.208;18.216;2022-08-20T03:43:18;21.40;99.90
12682;DHT22;6405;59.208;18.216;2022-08-20T03:45:45;21.30;99.90
12682;DHT22;6405;59.208;18.216;2022-08-20T03:48:18;21.30;99.90
12682;DHT22;6405;59.208;18.216;2022-08-20T03:50:46;21.20;99.90
12682;DHT22;6405;59.208;18.216;2022-08-20T03:53:14;21.10;99.90
12682;DHT22;6405;59.208;18.216;2022-08-20T03:55:48;21.00;99.90
12682;DHT22;6405;59.208;18.216;2022-08-20T03:58:16;21.00;99.90
12682;DHT22;6405;59.208;18.216;2022-08-20T04:00:49;20.90;99.90
12682;DHT22;6405;59.208;18.216;2022-08-20T04:03:16;20.90;99.90
12682;DHT22;6405;59.208;18.216;2022-08-20T04:05:43;20.90;99.90
12682;DHT22;6405;59.208;18.216;2022-08-20T04:08:17;20.80;99.90
12682;DHT22;6405;59.208;18.216;2022-08-20T04:10:45;20.80;99.90
12682;DHT22;6405;59.208;18.216;2022-08-20T04:13:13;20.80;99.90
12682;DHT22;6405;59.208;18.216;2022-08-20T04:15:40;20.70;99.90
12682;DHT22;6405;59.208;18.216;2022-08-20T04:18:08;20.70;99.90
12682;DHT22;6405;59.208;18.216;2022-08-20T04:20:37;20.60;99.90
12682;DHT22;6405;59.208;18.216;2022-08-20T04:23:06;20.60;99.90
12682;DHT22;6405;59.208;18.216;2022-08-20T04:25:36;20.60;99.90
12682;DHT22;6405;59.208;18.216;2022-08-20T04:28:08;20.60;99.90
12682;DHT22;6405;59.208;18.216;2022-08-20T04:30:35;20.60;99.90
12682;DHT22;6405;59.208;18.216;2022-08-20T04:33:03;20.50;99.90
12682;DHT22;6405;59.208;18.216;2022-08-20T04:35:30;20.50;99.90
12682;DHT22;6405;59.208;18.216;2022-08-20T04:38:07;20.50;99.90
12682;DHT22;6405;59.208;18.216;2022-08-20T04:40:34;20.50;99.90
12682;DHT22;6405;59.208;18.216;2022-08-20T04:43:20;20.50;99.90
12682;DHT22;6405;59.208;18.216;2022-08-20T04:45:49;20.50;99.90
12682;DHT22;6405;59.208;18.216;2022-08-20T04:48:19;20.40;99.90
12682;DHT22;6405;59.208;18.216;2022-08-20T04:50:46;20.50;99.90
12682;DHT22;6405;59.208;18.216;2022-08-20T04:53:15;20.40;99.90
12682;DHT22;6405;59.208;18.216;2022-08-20T04:55:45;20.40;99.90
12682;DHT22;6405;59.208;18.216;2022-08-20T04:58:15;20.40;99.90
12682;DHT22;6405;59.208;18.216;2022-08-20T05:00:51;20.40;99.90
12682;DHT22;6405;59.208;18.216;2022-08-20T05:03:18;20.40;99.90
12682;DHT22;6405;59.208;18.216;2022-08-20T05:05:46;20.40;99.90
12682;DHT22;6405;59.208;18.216;2022-08-20T05:08:13;20.30;99.90
12682;DHT22;6405;59.208;18.216;2022-08-20T05:10:43;20.30;99.90
12682;DHT22;6405;59.208;18.216;2022-08-20T05:13:10;20.30;99.90
12682;DHT22;6405;59.208;18.216;2022-08-20T05:15:38;20.30;99.90
12682;DHT22;6405;59.208;18.216;2022-08-20T05:18:07;20.40;99.90
12682;DHT22;6405;59.208;18.216;2022-08-20T05:20:37;20.30;99.90
12682;DHT22;6405;59.208;18.216;2022-08-20T05:23:11;20.30;99.90
12682;DHT22;6405;59.208;18.216;2022-08-20T05:25:41;20.30;99.90
12682;DHT22;6405;59.208;18.216;2022-08-20T05:28:10;20.30;99.90
12682;DHT22;6405;59.208;18.216;2022-08-20T05:30:41;20.30;99.90
12682;DHT22;6405;59.208;18.216;2022-08-20T05:33:10;20.30;99.90
12682;DHT22;6405;59.208;18.216;2022-08-20T05:35:37;20.30;99.90
12682;DHT22;6405;59.208;18.216;2022-08-20T05:38:06;20.30;99.90
12682;DHT22;6405;59.208;18.216;2022-08-20T05:40:34;20.30;99.90
12682;DHT22;6405;59.208;18.216;2022-08-20T05:43:00;20.30;99.90
12682;DHT22;6405;59.208;18.216;2022-08-20T05:45:31;20.20;99.90
12682;DHT22;6405;59.208;18.216;2022-08-20T05:48:11;20.20;99.90
12682;DHT22;6405;59.208;18.216;2022-08-20T05:50:41;20.20;99.90
12682;DHT22;6405;59.208;18.216;2022-08-20T05:53:07;20.30;99.90
12682;DHT22;6405;59.208;18.216;2022-08-20T05:55:35;20.20;99.90
12682;DHT22;6405;59.208;18.216;2022-08-20T05:58:11;20.20;99.90
12682;DHT22;6405;59.208;18.216;2022-08-20T06:00:39;20.20;99.90
12682;DHT22;6405;59.208;18.216;2022-08-20T06:03:06;20.20;99.90
12682;DHT22;6405;59.208;18.216;2022-08-20T06:05:51;20.20;99.90
12682;DHT22;6405;59.208;18.216;2022-08-20T06:08:16;20.20;99.90
12682;DHT22;6405;59.208;18.216;2022-08-20T06:10:42;20.20;99.90
12682;DHT22;6405;59.208;18.216;2022-08-20T06:13:10;20.20;99.90
12682;DHT22;6405;59.208;18.216;2022-08-20T06:15:38;20.20;99.90
12682;DHT22;6405;59.208;18.216;2022-08-20T06:18:06;20.20;99.90
12682;DHT22;6405;59.208;18.216;2022-08-20T06:20:34;20.20;99.90
12682;DHT22;6405;59.208;18.216;2022-08-20T06:23:01;20.20;99.90
12682;DHT22;6405;59.208;18.216;2022-08-20T06:25:27;20.20;99.90
12682;DHT22;6405;59.208;18.216;2022-08-20T06:27:55;20.30;99.90
12682;DHT22;6405;59.208;18.216;2022-08-20T06:30:22;20.40;99.90
12682;DHT22;6405;59.208;18.216;2022-08-20T06:32:49;20.40;99.90
12682;DHT22;6405;59.208;18.216;2022-08-20T06:35:17;20.40;99.90
12682;DHT22;6405;59.208;18.216;2022-08-20T06:37:44;20.40;99.90
12682;DHT22;6405;59.208;18.216;2022-08-20T06:40:14;20.40;99.90
12682;DHT22;6405;59.208;18.216;2022-08-20T06:42:43;20.50;99.90
12682;DHT22;6405;59.208;18.216;2022-08-20T06:45:13;20.50;99.90
12682;DHT22;6405;59.208;18.216;2022-08-20T06:47:42;20.50;99.90
12682;DHT22;6405;59.208;18.216;2022-08-20T06:50:14;20.50;99.90
12682;DHT22;6405;59.208;18.216;2022-08-20T06:52:42;20.50;99.90
12682;DHT22;6405;59.208;18.216;2022-08-20T06:55:09;20.60;99.90
12682;DHT22;6405;59.208;18.216;2022-08-20T06:57:37;20.80;99.90
12682;DHT22;6405;59.208;18.216;2022-08-20T07:00:11;20.90;99.90
12682;DHT22;6405;59.208;18.216;2022-08-20T07:02:40;21.10;99.90
12682;DHT22;6405;59.208;18.216;2022-08-20T07:05:09;21.10;99.90
12682;DHT22;6405;59.208;18.216;2022-08-20T07:07:36;21.10;99.90
12682;DHT22;6405;59.208;18.216;2022-08-20T07:10:08;21.10;99.90
12682;DHT22;6405;59.208;18.216;2022-08-20T07:12:36;21.00;99.90
12682;DHT22;6405;59.208;18.216;2022-08-20T07:15:05;21.00;99.90
12682;DHT22;6405;59.208;18.216;2022-08-20T07:17:33;20.90;99.90
12682;DHT22;6405;59.208;18.216;2022-08-20T07:20:05;20.80;99.90
12682;DHT22;6405;59.208;18.216;2022-08-20T07:22:32;20.80;99.90
12682;DHT22;6405;59.208;18.216;2022-08-20T07:25:08;20.80;99.90
12682;DHT22;6405;59.208;18.216;2022-08-20T07:27:35;20.70;99.90
12682;DHT22;6405;59.208;18.216;2022-08-20T07:30:04;20.70;99.90
12682;DHT22;6405;59.208;18.216;2022-08-20T07:32:50;20.70;99.90
12682;DHT22;6405;59.208;18.216;2022-08-20T07:35:18;20.70;99.90
12682;DHT22;6405;59.208;18.216;2022-08-20T07:37:47;20.70;99.90
12682;DHT22;6405;59.208;18.216;2022-08-20T07:40:21;20.60;99.90
12682;DHT22;6405;59.208;18.216;2022-08-20T07:42:49;20.70;99.90
12682;DHT22;6405;59.208;18.216;2022-08-20T07:45:18;20.70;99.90
12682;DHT22;6405;59.208;18.216;2022-08-20T07:47:47;20.70;99.90
12682;DHT22;6405;59.208;18.216;2022-08-20T07:50:18;20.90;99.90
12682;DHT22;6405;59.208;18.216;2022-08-20T07:52:47;21.20;99.90
12682;DHT22;6405;59.208;18.216;2022-08-20T07:55:15;21.40;99.90
12682;DHT22;6405;59.208;18.216;2022-08-20T07:57:43;21.60;99.90
12682;DHT22;6405;59.208;18.216;2022-08-20T08:00:13;21.80;99.90
12682;DHT22;6405;59.208;18.216;2022-08-20T08:02:40;22.00;99.90
12682;DHT22;6405;59.208;18.216;2022-08-20T08:05:09;22.20;99.90
12682;DHT22;6405;59.208;18.216;2022-08-20T08:07:36;22.30;99.90
12682;DHT22;6405;59.208;18.216;2022-08-20T08:10:06;22.30;99.90
12682;DHT22;6405;59.208;18.216;2022-08-20T08:12:41;22.30;99.90
12682;DHT22;6405;59.208;18.216;2022-08-20T08:15:15;22.30;99.90
12682;DHT22;6405;59.208;18.216;2022-08-20T08:17:45;22.30;99.90
12682;DHT22;6405;59.208;18.216;2022-08-20T08:20:14;22.30;99.90
12682;DHT22;6405;59.208;18.216;2022-08-20T08:22:42;22.30;99.90
12682;DHT22;6405;59.208;18.216;2022-08-20T08:25:11;22.20;99.90
12682;DHT22;6405;59.208;18.216;2022-08-20T08:27:39;22.20;99.90
12682;DHT22;6405;59.208;18.216;2022-08-20T08:30:06;22.10;99.90
12682;DHT22;6405;59.208;18.216;2022-08-20T08:32:36;22.00;99.90
12682;DHT22;6405;59.208;18.216;2022-08-20T08:35:05;22.00;99.90
12682;DHT22;6405;59.208;18.216;2022-08-20T08:37:33;21.80;99.90
12682;DHT22;6405;59.208;18.216;2022-08-20T08:40:01;21.80;99.90
12682;DHT22;6405;59.208;18.216;2022-08-20T08:42:42;21.70;99.90
12682;DHT22;6405;59.208;18.216;2022-08-20T08:45:12;21.50;99.90
12682;DHT22;6405;59.208;18.216;2022-08-20T08:47:43;21.40;99.90
12682;DHT22;6405;59.208;18.216;2022-08-20T08:50:22;21.30;99.90
12682;DHT22;6405;59.208;18.216;2022-08-20T08:52:53;21.20;99.90
12682;DHT22;6405;59.208;18.216;2022-08-20T08:55:27;21.20;99.90
12682;DHT22;6405;59.208;18.216;2022-08-20T08:57:58;21.20;99.90
12682;DHT22;6405;59.208;18.216;2022-08-20T09:00:26;21.10;99.90
12682;DHT22;6405;59.208;18.216;2022-08-20T09:03:05;21.10;99.90
12682;DHT22;6405;59.208;18.216;2022-08-20T09:05:52;21.10;99.90
12682;DHT22;6405;59.208;18.216;2022-08-20T09:08:24;21.10;99.90
12682;DHT22;6405;59.208;18.216;2022-08-20T09:10:52;21.20;99.90
12682;DHT22;6405;59.208;18.216;2022-08-20T09:13:20;21.20;99.90
12682;DHT22;6405;59.208;18.216;2022-08-20T09:15:47;21.20;99.90
12682;DHT22;6405;59.208;18.216;2022-08-20T09:18:14;21.20;99.90
12682;DHT22;6405;59.208;18.216;2022-08-20T09:20:40;21.30;99.90
12682;DHT22;6405;59.208;18.216;2022-08-20T09:23:08;21.30;99.90
12682;DHT22;6405;59.208;18.216;2022-08-20T09:25:35;21.30;99.90
12682;DHT22;6405;59.208;18.216;2022-08-20T09:28:03;21.30;99.90
12682;DHT22;6405;59.208;18.216;2022-08-20T09:30:30;21.30;99.90
12682;DHT22;6405;59.208;18.216;2022-08-20T09:33:00;21.40;99.90
12682;DHT22;6405;59.208;18.216;2022-08-20T09:35:27;21.40;99.90
12682;DHT22;6405;59.208;18.216;2022-08-20T09:37:55;21.50;99.90
12682;DHT22;6405;59.208;18.216;2022-08-20T09:40:23;21.60;99.90
12682;DHT22;6405;59.208;18.216;2022-08-20T09:42:50;21.60;99.90
12682;DHT22;6405;59.208;18.216;2022-08-20T09:45:17;21.60;99.90
12682;DHT22;6405;59.208;18.216;2022-08-20T09:47:44;21.70;99.90
12682;DHT22;6405;59.208;18.216;2022-08-20T09:50:14;21.70;99.90
12682;DHT22;6405;59.208;18.216;2022-08-20T09:52:44;21.80;99.90
12682;DHT22;6405;59.208;18.216;2022-08-20T09:55:27;21.90;99.90
12682;DHT22;6405;59.208;18.216;2022-08-20T09:57:57;21.80;99.90
12682;DHT22;6405;59.208;18.216;2022-08-20T10:00:24;21.70;99.90
12682;DHT22;6405;59.208;18.216;2022-08-20T10:02:51;21.70;99.90
12682;DHT22;6405;59.208;18.216;2022-08-20T10:05:18;21.70;99.90
12682;DHT22;6405;59.208;18.216;2022-08-20T10:07:44;21.70;99.90
12682;DHT22;6405;59.208;18.216;2022-08-20T10:10:13;21.70;99.90
12682;DHT22;6405;59.208;18.216;2022-08-20T10:12:41;21.70;99.90
12682;DHT22;6405;59.208;18.216;2022-08-20T10:15:08;21.70;99.90
12682;DHT22;6405;59.208;18.216;2022-08-20T10:17:40;21.70;99.90
12682;DHT22;6405;59.208;18.216;2022-08-20T10:20:10;21.60;99.90
12682;DHT22;6405;59.208;18.216;2022-08-20T10:22:38;21.60;99.90
12682;DHT22;6405;59.208;18.216;2022-08-20T10:25:04;21.60;99.90
12682;DHT22;6405;59.208;18.216;2022-08-20T10:27:32;21.60;99.90
12682;DHT22;6405;59.208;18.216;2022-08-20T10:29:59;21.60;99.90
12682;DHT22;6405;59.208;18.216;2022-08-20T10:32:25;21.70;99.90
12682;DHT22;6405;59.208;18.216;2022-08-20T10:34:52;21.80;99.90
12682;DHT22;6405;59.208;18.216;2022-08-20T10:37:22;21.90;99.90
12682;DHT22;6405;59.208;18.216;2022-08-20T10:39:50;21.90;99.90
12682;DHT22;6405;59.208;18.216;2022-08-20T10:42:16;21.90;99.90
12682;DHT22;6405;59.208;18.216;2022-08-20T10:44:43;21.90;99.90
12682;DHT22;6405;59.208;18.216;2022-08-20T10:49:42;22.00;99.90
12682;DHT22;6405;59.208;18.216;2022-08-20T10:52:10;22.00;99.90
12682;DHT22;6405;59.208;18.216;2022-08-20T10:54:37;22.00;99.90
12682;DHT22;6405;59.208;18.216;2022-08-20T10:57:11;21.90;99.90
12682;DHT22;6405;59.208;18.216;2022-08-20T10:59:41;21.90;99.90
12682;DHT22;6405;59.208;18.216;2022-08-20T11:02:09;21.80;99.90
12682;DHT22;6405;59.208;18.216;2022-08-20T11:04:37;21.80;99.90
12682;DHT22;6405;59.208;18.216;2022-08-20T11:07:14;21.80;99.90
12682;DHT22;6405;59.208;18.216;2022-08-20T11:09:43;21.90;99.90
12682;DHT22;6405;59.208;18.216;2022-08-20T11:12:12;21.80;99.90
12682;DHT22;6405;59.208;18.216;2022-08-20T11:14:39;21.80;99.90
12682;DHT22;6405;59.208;18.216;2022-08-20T11:17:06;21.80;99.90
12682;DHT22;6405;59.208;18.216;2022-08-20T11:19:41;21.70;99.90
12682;DHT22;6405;59.208;18.216;2022-08-20T11:22:10;21.70;99.90
12682;DHT22;6405;59.208;18.216;2022-08-20T11:24:37;21.70;99.90
12682;DHT22;6405;59.208;18.216;2022-08-20T11:27:07;21.70;99.90
12682;DHT22;6405;59.208;18.216;2022-08-20T11:29:35;21.70;99.90
12682;DHT22;6405;59.208;18.216;2022-08-20T11:32:03;21.70;99.90
12682;DHT22;6405;59.208;18.216;2022-08-20T11:34:31;21.70;99.90
12682;DHT22;6405;59.208;18.216;2022-08-20T11:36:58;21.70;99.90
12682;DHT22;6405;59.208;18.216;2022-08-20T11:39:25;21.70;99.90
12682;DHT22;6405;59.208;18.216;2022-08-20T11:41:52;21.70;99.90
12682;DHT22;6405;59.208;18.216;2022-08-20T11:44:18;21.70;99.90
12682;DHT22;6405;59.208;18.216;2022-08-20T11:46:45;21.80;99.90
12682;DHT22;6405;59.208;18.216;2022-08-20T11:49:13;21.90;99.90
12682;DHT22;6405;59.208;18.216;2022-08-20T11:51:41;22.00;99.90
12682;DHT22;6405;59.208;18.216;2022-08-20T11:54:08;21.90;99.90
12682;DHT22;6405;59.208;18.216;2022-08-20T11:56:34;21.90;99.90
12682;DHT22;6405;59.208;18.216;2022-08-20T11:59:00;21.80;99.90
12682;DHT22;6405;59.208;18.216;2022-08-20T12:01:28;21.80;99.90
12682;DHT22;6405;59.208;18.216;2022-08-20T12:03:55;21.80;99.90
12682;DHT22;6405;59.208;18.216;2022-08-20T12:06:22;21.70;99.90
12682;DHT22;6405;59.208;18.216;2022-08-20T12:08:49;21.70;99.90
12682;DHT22;6405;59.208;18.216;2022-08-20T12:11:16;21.70;99.90
12682;DHT22;6405;59.208;18.216;2022-08-20T12:13:42;21.60;99.90
12682;DHT22;6405;59.208;18.216;2022-08-20T12:16:11;21.60;99.90
12682;DHT22;6405;59.208;18.216;2022-08-20T12:18:38;21.60;99.90
12682;DHT22;6405;59.208;18.216;2022-08-20T12:21:04;21.60;99.90
12682;DHT22;6405;59.208;18.216;2022-08-20T12:23:31;21.50;99.90
12682;DHT22;6405;59.208;18.216;2022-08-20T12:26:00;21.50;99.90
12682;DHT22;6405;59.208;18.216;2022-08-20T12:28:29;21.50;99.90
12682;DHT22;6405;59.208;18.216;2022-08-20T12:30:57;21.50;99.90
12682;DHT22;6405;59.208;18.216;2022-08-20T12:33:24;21.50;99.90
12682;DHT22;6405;59.208;18.216;2022-08-20T12:35:52;21.50;99.90
12682;DHT22;6405;59.208;18.216;2022-08-20T12:38:18;21.60;99.90
12682;DHT22;6405;59.208;18.216;2022-08-20T12:40:45;21.60;99.90
12682;DHT22;6405;59.208;18.216;2022-08-20T12:43:12;21.60;99.90
12682;DHT22;6405;59.208;18.216;2022-08-20T12:45:39;21.70;99.90
12682;DHT22;6405;59.208;18.216;2022-08-20T12:48:10;21.70;99.90
12682;DHT22;6405;59.208;18.216;2022-08-20T12:50:38;21.70;99.90
12682;DHT22;6405;59.208;18.216;2022-08-20T12:53:06;21.70;99.90
12682;DHT22;6405;59.208;18.216;2022-08-20T12:55:33;21.80;99.90
12682;DHT22;6405;59.208;18.216;2022-08-20T12:58:02;21.80;99.90
12682;DHT22;6405;59.208;18.216;2022-08-20T13:00:35;21.80;99.90
12682;DHT22;6405;59.208;18.216;2022-08-20T13:03:04;21.90;99.90
12682;DHT22;6405;59.208;18.216;2022-08-20T13:05:33;22.00;99.90
12682;DHT22;6405;59.208;18.216;2022-08-20T13:08:03;22.30;99.90
12682;DHT22;6405;59.208;18.216;2022-08-20T13:10:33;22.50;99.90
12682;DHT22;6405;59.208;18.216;2022-08-20T13:13:00;22.70;99.90
12682;DHT22;6405;59.208;18.216;2022-08-20T13:15:31;22.80;99.90
12682;DHT22;6405;59.208;18.216;2022-08-20T13:18:01;23.00;99.90
12682;DHT22;6405;59.208;18.216;2022-08-20T13:20:30;23.20;99.90
12682;DHT22;6405;59.208;18.216;2022-08-20T13:22:58;23.30;99.90
12682;DHT22;6405;59.208;18.216;2022-08-20T13:25:25;23.40;99.90
12682;DHT22;6405;59.208;18.216;2022-08-20T13:27:57;23.60;99.90
12682;DHT22;6405;59.208;18.216;2022-08-20T13:30:26;23.90;99.90
12682;DHT22;6405;59.208;18.216;2022-08-20T13:32:54;24.20;99.90
12682;DHT22;6405;59.208;18.216;2022-08-20T13:35:21;24.20;99.90
12682;DHT22;6405;59.208;18.216;2022-08-20T13:37:49;24.30;99.90
12682;DHT22;6405;59.208;18.216;2022-08-20T13:40:17;24.40;99.90
12682;DHT22;6405;59.208;18.216;2022-08-20T13:42:45;24.50;99.90
12682;DHT22;6405;59.208;18.216;2022-08-20T13:45:12;24.60;99.90
12682;DHT22;6405;59.208;18.216;2022-08-20T13:47:40;24.50;99.90
12682;DHT22;6405;59.208;18.216;2022-08-20T13:52:38;24.60;99.90
12682;DHT22;6405;59.208;18.216;2022-08-20T13:55:06;24.70;99.90
12682;DHT22;6405;59.208;18.216;2022-08-20T13:57:34;25.00;99.90
12682;DHT22;6405;59.208;18.216;2022-08-20T14:00:03;25.30;99.90
12682;DHT22;6405;59.208;18.216;2022-08-20T14:02:32;25.20;99.90
12682;DHT22;6405;59.208;18.216;2022-08-20T14:05:00;25.10;99.90
12682;DHT22;6405;59.208;18.216;2022-08-20T14:07:29;25.10;99.90
12682;DHT22;6405;59.208;18.216;2022-08-20T14:09:59;25.00;99.90
12682;DHT22;6405;59.208;18.216;2022-08-20T14:12:28;25.00;99.90
12682;DHT22;6405;59.208;18.216;2022-08-20T14:14:55;25.10;99.90
12682;DHT22;6405;59.208;18.216;2022-08-20T14:17:26;25.10;99.90
12682;DHT22;6405;59.208;18.216;2022-08-20T14:20:15;24.90;99.90
12682;DHT22;6405;59.208;18.216;2022-08-20T14:22:44;24.70;99.90
12682;DHT22;6405;59.208;18.216;2022-08-20T14:25:15;24.60;99.90
12682;DHT22;6405;59.208;18.216;2022-08-20T14:27:43;24.50;99.90
12682;DHT22;6405;59.208;18.216;2022-08-20T14:30:14;24.30;99.90
12682;DHT22;6405;59.208;18.216;2022-08-20T14:32:42;24.10;99.90
12682;DHT22;6405;59.208;18.216;2022-08-20T14:35:10;24.00;99.90
12682;DHT22;6405;59.208;18.216;2022-08-20T14:37:41;24.10;99.90
12682;DHT22;6405;59.208;18.216;2022-08-20T14:40:12;24.00;99.90
12682;DHT22;6405;59.208;18.216;2022-08-20T14:42:40;24.10;99.90
12682;DHT22;6405;59.208;18.216;2022-08-20T14:45:08;24.20;99.90
12682;DHT22;6405;59.208;18.216;2022-08-20T14:47:51;24.30;99.90
12682;DHT22;6405;59.208;18.216;2022-08-20T14:50:28;24.10;99.90
12682;DHT22;6405;59.208;18.216;2022-08-20T14:52:56;24.10;99.90
12682;DHT22;6405;59.208;18.216;2022-08-20T14:55:30;24.30;99.90
12682;DHT22;6405;59.208;18.216;2022-08-20T14:57:57;24.30;99.90
12682;DHT22;6405;59.208;18.216;2022-08-20T15:00:28;24.40;99.90
12682;DHT22;6405;59.208;18.216;2022-08-20T15:02:55;24.40;99.90
12682;DHT22;6405;59.208;18.216;2022-08-20T15:05:21;24.30;99.90
12682;DHT22;6405;59.208;18.216;2022-08-20T15:07:49;24.20;99.90
12682;DHT22;6405;59.208;18.216;2022-08-20T15:10:42;24.10;99.90
12682;DHT22;6405;59.208;18.216;2022-08-20T15:13:10;24.20;99.90
12682;DHT22;6405;59.208;18.216;2022-08-20T15:15:38;24.10;99.90
12682;DHT22;6405;59.208;18.216;2022-08-20T15:18:06;24.10;99.90
12682;DHT22;6405;59.208;18.216;2022-08-20T15:20:34;24.10;99.90
12682;DHT22;6405;59.208;18.216;2022-08-20T15:23:02;24.30;99.90
12682;DHT22;6405;59.208;18.216;2022-08-20T15:25:31;24.40;99.90
12682;DHT22;6405;59.208;18.216;2022-08-20T15:27:59;24.20;99.90
12682;DHT22;6405;59.208;18.216;2022-08-20T15:30:29;24.00;99.90
12682;DHT22;6405;59.208;18.216;2022-08-20T15:32:56;23.90;99.90
12682;DHT22;6405;59.208;18.216;2022-08-20T15:35:25;23.90;99.90
12682;DHT22;6405;59.208;18.216;2022-08-20T15:37:54;23.70;99.90
12682;DHT22;6405;59.208;18.216;2022-08-20T15:40:22;23.60;99.90
12682;DHT22;6405;59.208;18.216;2022-08-20T15:42:49;23.50;99.90
12682;DHT22;6405;59.208;18.216;2022-08-20T15:45:17;23.40;99.90
12682;DHT22;6405;59.208;18.216;2022-08-20T15:47:50;23.40;99.90
12682;DHT22;6405;59.208;18.216;2022-08-20T15:52:55;23.20;99.90
12682;DHT22;6405;59.208;18.216;2022-08-20T15:55:23;23.20;99.90
12682;DHT22;6405;59.208;18.216;2022-08-20T15:58:01;23.30;99.90